sensor_id;sensor_type;location;lat;lon;timestamp;P1;durP1;ratioP1;P2;durP2;ratioP2
57615;SDS011;43816;52.054;-9.494;2022-08-19T00:00:07;3.67;;;1.30;;
57615;SDS011;43816;52.054;-9.494;2022-08-19T00:00:19;3.80;;;1.40;;
57615;SDS011;43816;52.054;-9.494;2022-08-19T00:00:29;3.83;;;1.50;;
57615;SDS011;43816;52.054;-9.494;2022-08-19T00:00:39;3.77;;;1.47;;
57615;SDS011;43816;52.054;-9.494;2022-08-19T00:00:50;3.58;;;1.40;;
57615;SDS011;43816;52.054;-9.494;2022-08-19T00:01:00;3.43;;;1.47;;
57615;SDS011;43816;52.054;-9.494;2022-08-19T00:01:10;4.17;;;1.53;;
57615;SDS011;43816;52.054;-9.494;2022-08-19T00:01:21;4.18;;;1.52;;
57615;SDS011;43816;52.054;-9.494;2022-08-19T00:01:31;4.13;;;1.40;;
57615;SDS011;43816;52.054;-9.494;2022-08-19T00:01:43;3.25;;;1.27;;
57615;SDS011;43816;52.054;-9.494;2022-08-19T00:01:56;3.30;;;1.40;;
57615;SDS011;43816;52.054;-9.494;2022-08-19T00:02:07;3.15;;;1.38;;
57615;SDS011;43816;52.054;-9.494;2022-08-19T00:02:17;3.40;;;1.40;;
57615;SDS011;43816;52.054;-9.494;2022-08-19T00:02:28;3.47;;;1.35;;
57615;SDS011;43816;52.054;-9.494;2022-08-19T00:02:38;4.77;;;1.60;;
57615;SDS011;43816;52.054;-9.494;2022-08-19T00:02:48;4.90;;;1.70;;
57615;SDS011;43816;52.054;-9.494;2022-08-19T00:02:58;4.35;;;1.67;;
57615;SDS011;43816;52.054;-9.494;2022-08-19T00:03:09;3.47;;;1.50;;
57615;SDS011;43816;52.054;-9.494;2022-08-19T00:03:19;3.47;;;1.50;;
57615;SDS011;43816;52.054;-9.494;2022-08-19T00:03:29;3.67;;;1.40;;
57615;SDS011;43816;52.054;-9.494;2022-08-19T00:03:40;3.50;;;1.47;;
57615;SDS011;43816;52.054;-9.494;2022-08-19T00:03:50;3.10;;;1.50;;
57615;SDS011;43816;52.054;-9.494;2022-08-19T00:04:02;3.00;;;1.40;;
57615;SDS011;43816;52.054;-9.494;2022-08-19T00:04:15;2.80;;;1.25;;
57615;SDS011;43816;52.054;-9.494;2022-08-19T00:04:29;3.28;;;1.30;;
57615;SDS011;43816;52.054;-9.494;2022-08-19T00:04:41;2.92;;;1.30;;
57615;SDS011;43816;52.054;-9.494;2022-08-19T00:04:51;2.73;;;1.40;;
57615;SDS011;43816;52.054;-9.494;2022-08-19T00:05:02;3.10;;;1.48;;
57615;SDS011;43816;52.054;-9.494;2022-08-19T00:05:14;3.80;;;1.60;;
57615;SDS011;43816;52.054;-9.494;2022-08-19T00:05:24;3.58;;;1.60;;
57615;SDS011;43816;52.054;-9.494;2022-08-19T00:05:35;3.23;;;1.47;;
57615;SDS011;43816;52.054;-9.494;2022-08-19T00:05:45;2.73;;;1.20;;
57615;SDS011;43816;52.054;-9.494;2022-08-19T00:05:55;3.08;;;1.27;;
57615;SDS011;43816;52.054;-9.494;2022-08-19T00:06:05;3.20;;;1.30;;
57615;SDS011;43816;52.054;-9.494;2022-08-19T00:06:16;3.07;;;1.40;;
57615;SDS011;43816;52.054;-9.494;2022-08-19T00:06:27;3.15;;;1.40;;
57615;SDS011;43816;52.054;-9.494;2022-08-19T00:06:39;3.45;;;1.42;;
57615;SDS011;43816;52.054;-9.494;2022-08-19T00:06:52;3.33;;;1.42;;
57615;SDS011;43816;52.054;-9.494;2022-08-19T00:07:03;3.70;;;1.55;;
57615;SDS011;43816;52.054;-9.494;2022-08-19T00:07:15;3.50;;;1.52;;
57615;SDS011;43816;52.054;-9.494;2022-08-19T00:07:25;2.53;;;1.30;;
57615;SDS011;43816;52.054;-9.494;2022-08-19T00:07:36;2.23;;;1.30;;
57615;SDS011;43816;52.054;-9.494;2022-08-19T00:07:46;2.25;;;1.17;;
57615;SDS011;43816;52.054;-9.494;2022-08-19T00:07:58;2.95;;;1.25;;
57615;SDS011;43816;52.054;-9.494;2022-08-19T00:08:08;2.65;;;1.20;;
57615;SDS011;43816;52.054;-9.494;2022-08-19T00:08:18;2.47;;;1.30;;
57615;SDS011;43816;52.054;-9.494;2022-08-19T00:08:28;2.37;;;1.37;;
57615;SDS011;43816;52.054;-9.494;2022-08-19T00:08:39;3.00;;;1.50;;
57615;SDS011;43816;52.054;-9.494;2022-08-19T00:08:49;3.22;;;1.50;;
57615;SDS011;43816;52.054;-9.494;2022-08-19T00:08:59;3.13;;;1.40;;
57615;SDS011;43816;52.054;-9.494;2022-08-19T00:09:11;2.80;;;1.30;;
57615;SDS011;43816;52.054;-9.494;2022-08-19T00:09:26;2.92;;;1.50;;
57615;SDS011;43816;52.054;-9.494;2022-08-19T00:09:36;3.50;;;1.70;;
57615;SDS011;43816;52.054;-9.494;2022-08-19T00:09:46;3.27;;;1.60;;
57615;SDS011;43816;52.054;-9.494;2022-08-19T00:09:57;2.67;;;1.40;;
57615;SDS011;43816;52.054;-9.494;2022-08-19T00:10:07;2.63;;;1.20;;
57615;SDS011;43816;52.054;-9.494;2022-08-19T00:10:19;3.05;;;1.42;;
57615;SDS011;43816;52.054;-9.494;2022-08-19T00:10:30;3.25;;;1.50;;
57615;SDS011;43816;52.054;-9.494;2022-08-19T00:10:40;2.73;;;1.40;;
57615;SDS011;43816;52.054;-9.494;2022-08-19T00:10:50;2.63;;;1.23;;
57615;SDS011;43816;52.054;-9.494;2022-08-19T00:11:01;2.95;;;1.30;;
57615;SDS011;43816;52.054;-9.494;2022-08-19T00:11:11;2.73;;;1.30;;
57615;SDS011;43816;52.054;-9.494;2022-08-19T00:11:22;3.03;;;1.40;;
57615;SDS011;43816;52.054;-9.494;2022-08-19T00:11:34;3.20;;;1.40;;
57615;SDS011;43816;52.054;-9.494;2022-08-19T00:11:44;3.17;;;1.20;;
57615;SDS011;43816;52.054;-9.494;2022-08-19T00:11:55;2.95;;;1.23;;
57615;SDS011;43816;52.054;-9.494;2022-08-19T00:12:06;2.78;;;1.30;;
57615;SDS011;43816;52.054;-9.494;2022-08-19T00:12:17;2.72;;;1.30;;
57615;SDS011;43816;52.054;-9.494;2022-08-19T00:12:27;2.77;;;1.27;;
57615;SDS011;43816;52.054;-9.494;2022-08-19T00:12:37;3.13;;;1.27;;
57615;SDS011;43816;52.054;-9.494;2022-08-19T00:12:48;3.28;;;1.30;;
57615;SDS011;43816;52.054;-9.494;2022-08-19T00:12:58;3.20;;;1.23;;
57615;SDS011;43816;52.054;-9.494;2022-08-19T00:13:08;3.05;;;1.38;;
57615;SDS011;43816;52.054;-9.494;2022-08-19T00:13:19;2.93;;;1.30;;
57615;SDS011;43816;52.054;-9.494;2022-08-19T00:13:29;2.77;;;1.27;;
57615;SDS011;43816;52.054;-9.494;2022-08-19T00:13:39;2.90;;;1.27;;
57615;SDS011;43816;52.054;-9.494;2022-08-19T00:13:50;2.90;;;1.40;;
57615;SDS011;43816;52.054;-9.494;2022-08-19T00:14:00;3.30;;;1.40;;
57615;SDS011;43816;52.054;-9.494;2022-08-19T00:14:12;3.03;;;1.27;;
57615;SDS011;43816;52.054;-9.494;2022-08-19T00:14:24;3.70;;;1.40;;
57615;SDS011;43816;52.054;-9.494;2022-08-19T00:14:35;4.20;;;1.50;;
57615;SDS011;43816;52.054;-9.494;2022-08-19T00:14:46;4.00;;;1.40;;
57615;SDS011;43816;52.054;-9.494;2022-08-19T00:14:56;3.35;;;1.30;;
57615;SDS011;43816;52.054;-9.494;2022-08-19T00:15:07;2.87;;;1.27;;
57615;SDS011;43816;52.054;-9.494;2022-08-19T00:15:20;2.40;;;1.27;;
57615;SDS011;43816;52.054;-9.494;2022-08-19T00:15:31;3.05;;;1.40;;
57615;SDS011;43816;52.054;-9.494;2022-08-19T00:15:42;3.27;;;1.47;;
57615;SDS011;43816;52.054;-9.494;2022-08-19T00:15:52;3.25;;;1.45;;
57615;SDS011;43816;52.054;-9.494;2022-08-19T00:16:03;3.23;;;1.40;;
57615;SDS011;43816;52.054;-9.494;2022-08-19T00:16:14;3.25;;;1.35;;
57615;SDS011;43816;52.054;-9.494;2022-08-19T00:16:24;3.97;;;1.40;;
57615;SDS011;43816;52.054;-9.494;2022-08-19T00:16:36;3.53;;;1.40;;
57615;SDS011;43816;52.054;-9.494;2022-08-19T00:16:48;3.97;;;1.45;;
57615;SDS011;43816;52.054;-9.494;2022-08-19T00:16:58;3.17;;;1.38;;
57615;SDS011;43816;52.054;-9.494;2022-08-19T00:17:10;3.40;;;1.38;;
57615;SDS011;43816;52.054;-9.494;2022-08-19T00:17:20;3.20;;;1.43;;
57615;SDS011;43816;52.054;-9.494;2022-08-19T00:17:31;3.80;;;1.60;;
57615;SDS011;43816;52.054;-9.494;2022-08-19T00:17:42;3.57;;;1.50;;
57615;SDS011;43816;52.054;-9.494;2022-08-19T00:17:53;3.20;;;1.25;;
57615;SDS011;43816;52.054;-9.494;2022-08-19T00:18:04;2.67;;;1.17;;
57615;SDS011;43816;52.054;-9.494;2022-08-19T00:18:14;3.07;;;1.17;;
57615;SDS011;43816;52.054;-9.494;2022-08-19T00:18:24;3.50;;;1.33;;
57615;SDS011;43816;52.054;-9.494;2022-08-19T00:18:35;3.17;;;1.45;;
57615;SDS011;43816;52.054;-9.494;2022-08-19T00:18:46;2.77;;;1.47;;
57615;SDS011;43816;52.054;-9.494;2022-08-19T00:18:57;2.58;;;1.30;;
57615;SDS011;43816;52.054;-9.494;2022-08-19T00:19:08;3.17;;;1.27;;
57615;SDS011;43816;52.054;-9.494;2022-08-19T00:19:19;3.13;;;1.38;;
57615;SDS011;43816;52.054;-9.494;2022-08-19T00:19:30;3.45;;;1.40;;
57615;SDS011;43816;52.054;-9.494;2022-08-19T00:19:40;3.50;;;1.40;;
57615;SDS011;43816;52.054;-9.494;2022-08-19T00:19:51;3.40;;;1.30;;
57615;SDS011;43816;52.054;-9.494;2022-08-19T00:20:02;3.30;;;1.10;;
57615;SDS011;43816;52.054;-9.494;2022-08-19T00:20:14;3.20;;;1.10;;
57615;SDS011;43816;52.054;-9.494;2022-08-19T00:20:26;3.40;;;1.20;;
57615;SDS011;43816;52.054;-9.494;2022-08-19T00:20:37;3.47;;;1.30;;
57615;SDS011;43816;52.054;-9.494;2022-08-19T00:20:47;4.30;;;1.30;;
57615;SDS011;43816;52.054;-9.494;2022-08-19T00:20:57;3.73;;;1.30;;
57615;SDS011;43816;52.054;-9.494;2022-08-19T00:21:08;3.65;;;1.30;;
57615;SDS011;43816;52.054;-9.494;2022-08-19T00:21:18;3.03;;;1.30;;
57615;SDS011;43816;52.054;-9.494;2022-08-19T00:21:28;3.30;;;1.20;;
57615;SDS011;43816;52.054;-9.494;2022-08-19T00:21:39;2.63;;;1.00;;
57615;SDS011;43816;52.054;-9.494;2022-08-19T00:21:49;2.30;;;1.00;;
57615;SDS011;43816;52.054;-9.494;2022-08-19T00:22:00;1.90;;;0.95;;
57615;SDS011;43816;52.054;-9.494;2022-08-19T00:22:11;1.97;;;1.00;;
57615;SDS011;43816;52.054;-9.494;2022-08-19T00:22:21;2.13;;;1.17;;
57615;SDS011;43816;52.054;-9.494;2022-08-19T00:22:32;2.57;;;1.30;;
57615;SDS011;43816;52.054;-9.494;2022-08-19T00:22:42;2.97;;;1.50;;
57615;SDS011;43816;52.054;-9.494;2022-08-19T00:22:53;2.78;;;1.23;;
57615;SDS011;43816;52.054;-9.494;2022-08-19T00:23:04;2.43;;;1.13;;
57615;SDS011;43816;52.054;-9.494;2022-08-19T00:23:14;2.63;;;1.03;;
57615;SDS011;43816;52.054;-9.494;2022-08-19T00:23:25;2.53;;;1.17;;
57615;SDS011;43816;52.054;-9.494;2022-08-19T00:23:35;2.92;;;1.38;;
57615;SDS011;43816;52.054;-9.494;2022-08-19T00:23:46;2.73;;;1.30;;
57615;SDS011;43816;52.054;-9.494;2022-08-19T00:23:57;3.08;;;1.30;;
57615;SDS011;43816;52.054;-9.494;2022-08-19T00:24:08;2.67;;;1.15;;
57615;SDS011;43816;52.054;-9.494;2022-08-19T00:24:20;2.88;;;1.13;;
57615;SDS011;43816;52.054;-9.494;2022-08-19T00:24:30;2.78;;;1.10;;
57615;SDS011;43816;52.054;-9.494;2022-08-19T00:24:41;3.53;;;1.20;;
57615;SDS011;43816;52.054;-9.494;2022-08-19T00:24:51;3.43;;;1.27;;
57615;SDS011;43816;52.054;-9.494;2022-08-19T00:25:02;3.30;;;1.30;;
57615;SDS011;43816;52.054;-9.494;2022-08-19T00:25:14;2.58;;;1.20;;
57615;SDS011;43816;52.054;-9.494;2022-08-19T00:25:24;2.80;;;1.30;;
57615;SDS011;43816;52.054;-9.494;2022-08-19T00:25:35;2.47;;;1.30;;
57615;SDS011;43816;52.054;-9.494;2022-08-19T00:25:45;2.88;;;1.27;;
57615;SDS011;43816;52.054;-9.494;2022-08-19T00:25:55;2.93;;;1.20;;
57615;SDS011;43816;52.054;-9.494;2022-08-19T00:26:06;2.93;;;1.20;;
57615;SDS011;43816;52.054;-9.494;2022-08-19T00:26:17;2.60;;;1.20;;
57615;SDS011;43816;52.054;-9.494;2022-08-19T00:26:27;3.20;;;1.30;;
57615;SDS011;43816;52.054;-9.494;2022-08-19T00:26:38;3.10;;;1.30;;
57615;SDS011;43816;52.054;-9.494;2022-08-19T00:26:49;3.00;;;1.25;;
57615;SDS011;43816;52.054;-9.494;2022-08-19T00:27:00;2.55;;;1.10;;
57615;SDS011;43816;52.054;-9.494;2022-08-19T00:27:11;2.67;;;1.08;;
57615;SDS011;43816;52.054;-9.494;2022-08-19T00:27:22;2.65;;;1.00;;
57615;SDS011;43816;52.054;-9.494;2022-08-19T00:27:32;2.83;;;1.10;;
57615;SDS011;43816;52.054;-9.494;2022-08-19T00:27:43;2.93;;;1.10;;
57615;SDS011;43816;52.054;-9.494;2022-08-19T00:27:53;3.10;;;1.00;;
57615;SDS011;43816;52.054;-9.494;2022-08-19T00:28:04;2.67;;;1.00;;
57615;SDS011;43816;52.054;-9.494;2022-08-19T00:28:14;2.78;;;1.10;;
57615;SDS011;43816;52.054;-9.494;2022-08-19T00:28:25;2.97;;;1.20;;
57615;SDS011;43816;52.054;-9.494;2022-08-19T00:28:35;3.50;;;1.20;;
57615;SDS011;43816;52.054;-9.494;2022-08-19T00:28:46;3.55;;;1.23;;
57615;SDS011;43816;52.054;-9.494;2022-08-19T00:28:56;3.30;;;1.20;;
57615;SDS011;43816;52.054;-9.494;2022-08-19T00:29:07;2.97;;;1.13;;
57615;SDS011;43816;52.054;-9.494;2022-08-19T00:29:19;3.20;;;1.20;;
57615;SDS011;43816;52.054;-9.494;2022-08-19T00:29:31;3.42;;;1.30;;
57615;SDS011;43816;52.054;-9.494;2022-08-19T00:29:41;2.90;;;1.30;;
57615;SDS011;43816;52.054;-9.494;2022-08-19T00:29:51;2.17;;;1.20;;
57615;SDS011;43816;52.054;-9.494;2022-08-19T00:30:03;1.97;;;1.03;;
57615;SDS011;43816;52.054;-9.494;2022-08-19T00:30:14;2.42;;;0.95;;
57615;SDS011;43816;52.054;-9.494;2022-08-19T00:30:25;2.65;;;0.95;;
57615;SDS011;43816;52.054;-9.494;2022-08-19T00:30:36;3.05;;;1.02;;
57615;SDS011;43816;52.054;-9.494;2022-08-19T00:30:46;2.47;;;1.10;;
57615;SDS011;43816;52.054;-9.494;2022-08-19T00:30:57;2.95;;;1.20;;
57615;SDS011;43816;52.054;-9.494;2022-08-19T00:31:07;2.83;;;1.20;;
57615;SDS011;43816;52.054;-9.494;2022-08-19T00:31:19;2.83;;;1.23;;
57615;SDS011;43816;52.054;-9.494;2022-08-19T00:31:29;2.13;;;1.10;;
57615;SDS011;43816;52.054;-9.494;2022-08-19T00:31:39;2.78;;;1.17;;
57615;SDS011;43816;52.054;-9.494;2022-08-19T00:31:50;3.10;;;1.20;;
57615;SDS011;43816;52.054;-9.494;2022-08-19T00:32:01;3.25;;;1.30;;
57615;SDS011;43816;52.054;-9.494;2022-08-19T00:32:12;2.23;;;1.03;;
57615;SDS011;43816;52.054;-9.494;2022-08-19T00:32:22;2.30;;;1.10;;
57615;SDS011;43816;52.054;-9.494;2022-08-19T00:32:32;2.33;;;1.15;;
57615;SDS011;43816;52.054;-9.494;2022-08-19T00:32:43;2.33;;;1.27;;
57615;SDS011;43816;52.054;-9.494;2022-08-19T00:32:53;2.00;;;1.30;;
57615;SDS011;43816;52.054;-9.494;2022-08-19T00:33:04;1.80;;;1.10;;
57615;SDS011;43816;52.054;-9.494;2022-08-19T00:33:14;2.03;;;1.00;;
57615;SDS011;43816;52.054;-9.494;2022-08-19T00:33:24;2.53;;;1.00;;
57615;SDS011;43816;52.054;-9.494;2022-08-19T00:33:35;2.50;;;1.00;;
57615;SDS011;43816;52.054;-9.494;2022-08-19T00:33:46;2.47;;;1.20;;
57615;SDS011;43816;52.054;-9.494;2022-08-19T00:33:56;2.57;;;1.30;;
57615;SDS011;43816;52.054;-9.494;2022-08-19T00:34:07;2.83;;;1.30;;
57615;SDS011;43816;52.054;-9.494;2022-08-19T00:34:17;2.63;;;1.20;;
57615;SDS011;43816;52.054;-9.494;2022-08-19T00:34:27;2.20;;;1.13;;
57615;SDS011;43816;52.054;-9.494;2022-08-19T00:34:38;2.27;;;1.27;;
57615;SDS011;43816;52.054;-9.494;2022-08-19T00:34:48;2.35;;;1.25;;
57615;SDS011;43816;52.054;-9.494;2022-08-19T00:34:58;2.43;;;1.20;;
57615;SDS011;43816;52.054;-9.494;2022-08-19T00:35:08;2.37;;;1.13;;
57615;SDS011;43816;52.054;-9.494;2022-08-19T00:35:19;2.63;;;1.20;;
57615;SDS011;43816;52.054;-9.494;2022-08-19T00:35:29;2.60;;;1.30;;
57615;SDS011;43816;52.054;-9.494;2022-08-19T00:35:39;2.87;;;1.40;;
57615;SDS011;43816;52.054;-9.494;2022-08-19T00:35:50;2.90;;;1.40;;
57615;SDS011;43816;52.054;-9.494;2022-08-19T00:36:00;3.53;;;1.55;;
57615;SDS011;43816;52.054;-9.494;2022-08-19T00:36:12;3.08;;;1.48;;
57615;SDS011;43816;52.054;-9.494;2022-08-19T00:36:23;3.20;;;1.30;;
57615;SDS011;43816;52.054;-9.494;2022-08-19T00:36:33;2.83;;;1.23;;
57615;SDS011;43816;52.054;-9.494;2022-08-19T00:36:43;2.73;;;1.27;;
57615;SDS011;43816;52.054;-9.494;2022-08-19T00:36:54;2.50;;;1.40;;
57615;SDS011;43816;52.054;-9.494;2022-08-19T00:37:06;2.28;;;1.27;;
57615;SDS011;43816;52.054;-9.494;2022-08-19T00:37:16;2.37;;;1.10;;
57615;SDS011;43816;52.054;-9.494;2022-08-19T00:37:26;2.23;;;1.00;;
57615;SDS011;43816;52.054;-9.494;2022-08-19T00:37:37;2.53;;;1.00;;
57615;SDS011;43816;52.054;-9.494;2022-08-19T00:37:49;2.88;;;1.02;;
57615;SDS011;43816;52.054;-9.494;2022-08-19T00:37:59;2.72;;;1.00;;
57615;SDS011;43816;52.054;-9.494;2022-08-19T00:38:10;2.50;;;1.00;;
57615;SDS011;43816;52.054;-9.494;2022-08-19T00:38:20;2.20;;;0.93;;
57615;SDS011;43816;52.054;-9.494;2022-08-19T00:38:30;2.37;;;1.03;;
57615;SDS011;43816;52.054;-9.494;2022-08-19T00:38:41;1.90;;;1.08;;
57615;SDS011;43816;52.054;-9.494;2022-08-19T00:38:51;2.37;;;1.17;;
57615;SDS011;43816;52.054;-9.494;2022-08-19T00:39:01;2.73;;;1.10;;
57615;SDS011;43816;52.054;-9.494;2022-08-19T00:39:13;3.10;;;1.10;;
57615;SDS011;43816;52.054;-9.494;2022-08-19T00:39:24;3.03;;;1.08;;
57615;SDS011;43816;52.054;-9.494;2022-08-19T00:39:35;2.92;;;1.20;;
57615;SDS011;43816;52.054;-9.494;2022-08-19T00:39:45;2.80;;;1.17;;
57615;SDS011;43816;52.054;-9.494;2022-08-19T00:39:55;2.70;;;1.10;;
57615;SDS011;43816;52.054;-9.494;2022-08-19T00:40:07;2.90;;;1.00;;
57615;SDS011;43816;52.054;-9.494;2022-08-19T00:40:17;2.60;;;1.02;;
57615;SDS011;43816;52.054;-9.494;2022-08-19T00:40:28;2.40;;;1.10;;
57615;SDS011;43816;52.054;-9.494;2022-08-19T00:40:38;1.83;;;1.07;;
57615;SDS011;43816;52.054;-9.494;2022-08-19T00:40:49;2.35;;;1.10;;
57615;SDS011;43816;52.054;-9.494;2022-08-19T00:40:59;2.35;;;1.20;;
57615;SDS011;43816;52.054;-9.494;2022-08-19T00:41:12;2.90;;;1.30;;
57615;SDS011;43816;52.054;-9.494;2022-08-19T00:41:25;2.80;;;1.30;;
57615;SDS011;43816;52.054;-9.494;2022-08-19T00:41:35;2.88;;;1.15;;
57615;SDS011;43816;52.054;-9.494;2022-08-19T00:41:47;2.90;;;1.10;;
57615;SDS011;43816;52.054;-9.494;2022-08-19T00:42:00;3.53;;;1.27;;
57615;SDS011;43816;52.054;-9.494;2022-08-19T00:42:11;3.40;;;1.37;;
57615;SDS011;43816;52.054;-9.494;2022-08-19T00:42:21;3.22;;;1.30;;
57615;SDS011;43816;52.054;-9.494;2022-08-19T00:42:32;2.50;;;1.10;;
57615;SDS011;43816;52.054;-9.494;2022-08-19T00:42:42;2.28;;;1.00;;
57615;SDS011;43816;52.054;-9.494;2022-08-19T00:42:52;2.07;;;1.20;;
57615;SDS011;43816;52.054;-9.494;2022-08-19T00:43:07;2.30;;;1.20;;
57615;SDS011;43816;52.054;-9.494;2022-08-19T00:43:20;2.40;;;1.10;;
57615;SDS011;43816;52.054;-9.494;2022-08-19T00:43:32;2.35;;;1.20;;
57615;SDS011;43816;52.054;-9.494;2022-08-19T00:43:43;2.92;;;1.20;;
57615;SDS011;43816;52.054;-9.494;2022-08-19T00:44:07;2.78;;;1.05;;
57615;SDS011;43816;52.054;-9.494;2022-08-19T00:44:22;2.58;;;1.10;;
57615;SDS011;43816;52.054;-9.494;2022-08-19T00:44:35;2.97;;;1.10;;
57615;SDS011;43816;52.054;-9.494;2022-08-19T00:44:45;2.70;;;1.10;;
57615;SDS011;43816;52.054;-9.494;2022-08-19T00:44:56;2.50;;;1.10;;
57615;SDS011;43816;52.054;-9.494;2022-08-19T00:45:26;3.10;;;1.20;;
57615;SDS011;43816;52.054;-9.494;2022-08-19T00:45:37;3.53;;;1.35;;
57615;SDS011;43816;52.054;-9.494;2022-08-19T00:45:49;2.78;;;1.30;;
57615;SDS011;43816;52.054;-9.494;2022-08-19T00:45:59;2.57;;;1.13;;
57615;SDS011;43816;52.054;-9.494;2022-08-19T00:46:10;2.00;;;1.10;;
57615;SDS011;43816;52.054;-9.494;2022-08-19T00:46:20;2.33;;;1.03;;
57615;SDS011;43816;52.054;-9.494;2022-08-19T00:46:31;2.40;;;1.03;;
57615;SDS011;43816;52.054;-9.494;2022-08-19T00:46:43;2.75;;;1.02;;
57615;SDS011;43816;52.054;-9.494;2022-08-19T00:46:56;2.67;;;1.05;;
57615;SDS011;43816;52.054;-9.494;2022-08-19T00:47:08;2.67;;;1.10;;
57615;SDS011;43816;52.054;-9.494;2022-08-19T00:47:18;2.53;;;1.13;;
57615;SDS011;43816;52.054;-9.494;2022-08-19T00:47:29;3.15;;;1.30;;
57615;SDS011;43816;52.054;-9.494;2022-08-19T00:47:39;3.30;;;1.30;;
57615;SDS011;43816;52.054;-9.494;2022-08-19T00:47:49;3.17;;;1.17;;
57615;SDS011;43816;52.054;-9.494;2022-08-19T00:48:00;2.25;;;1.10;;
57615;SDS011;43816;52.054;-9.494;2022-08-19T00:48:10;2.20;;;1.10;;
57615;SDS011;43816;52.054;-9.494;2022-08-19T00:48:21;2.22;;;1.10;;
57615;SDS011;43816;52.054;-9.494;2022-08-19T00:48:32;2.60;;;1.13;;
57615;SDS011;43816;52.054;-9.494;2022-08-19T00:48:43;2.75;;;1.20;;
57615;SDS011;43816;52.054;-9.494;2022-08-19T00:48:54;2.83;;;1.20;;
57615;SDS011;43816;52.054;-9.494;2022-08-19T00:49:06;3.28;;;1.02;;
57615;SDS011;43816;52.054;-9.494;2022-08-19T00:49:47;2.30;;;1.00;;
57615;SDS011;43816;52.054;-9.494;2022-08-19T00:50:00;2.15;;;0.90;;
57615;SDS011;43816;52.054;-9.494;2022-08-19T00:50:11;2.08;;;0.90;;
57615;SDS011;43816;52.054;-9.494;2022-08-19T00:50:23;2.22;;;1.00;;
57615;SDS011;43816;52.054;-9.494;2022-08-19T00:50:34;2.60;;;1.10;;
57615;SDS011;43816;52.054;-9.494;2022-08-19T00:50:45;3.33;;;1.10;;
57615;SDS011;43816;52.054;-9.494;2022-08-19T00:50:57;3.22;;;1.17;;
57615;SDS011;43816;52.054;-9.494;2022-08-19T00:51:08;3.00;;;1.00;;
57615;SDS011;43816;52.054;-9.494;2022-08-19T00:51:18;2.92;;;1.05;;
57615;SDS011;43816;52.054;-9.494;2022-08-19T00:51:29;3.00;;;1.10;;
57615;SDS011;43816;52.054;-9.494;2022-08-19T00:51:41;2.13;;;1.15;;
57615;SDS011;43816;52.054;-9.494;2022-08-19T00:52:04;2.08;;;1.10;;
57615;SDS011;43816;52.054;-9.494;2022-08-19T00:52:27;2.28;;;1.02;;
57615;SDS011;43816;52.054;-9.494;2022-08-19T00:52:43;2.03;;;1.02;;
57615;SDS011;43816;52.054;-9.494;2022-08-19T00:52:56;2.10;;;1.00;;
57615;SDS011;43816;52.054;-9.494;2022-08-19T00:53:06;2.30;;;1.10;;
57615;SDS011;43816;52.054;-9.494;2022-08-19T00:53:18;2.33;;;1.00;;
57615;SDS011;43816;52.054;-9.494;2022-08-19T00:53:30;2.65;;;1.13;;
57615;SDS011;43816;52.054;-9.494;2022-08-19T00:53:42;2.47;;;0.95;;
57615;SDS011;43816;52.054;-9.494;2022-08-19T00:53:53;2.40;;;0.90;;
57615;SDS011;43816;52.054;-9.494;2022-08-19T00:54:04;2.88;;;1.23;;
57615;SDS011;43816;52.054;-9.494;2022-08-19T00:54:15;2.92;;;1.25;;
57615;SDS011;43816;52.054;-9.494;2022-08-19T00:54:26;2.60;;;1.30;;
57615;SDS011;43816;52.054;-9.494;2022-08-19T00:54:38;2.10;;;1.17;;
57615;SDS011;43816;52.054;-9.494;2022-08-19T00:54:49;2.25;;;1.20;;
57615;SDS011;43816;52.054;-9.494;2022-08-19T00:55:02;2.15;;;1.05;;
57615;SDS011;43816;52.054;-9.494;2022-08-19T00:55:22;2.13;;;1.00;;
57615;SDS011;43816;52.054;-9.494;2022-08-19T00:55:35;2.65;;;1.10;;
57615;SDS011;43816;52.054;-9.494;2022-08-19T00:55:48;2.70;;;1.10;;
57615;SDS011;43816;52.054;-9.494;2022-08-19T00:56:01;3.28;;;1.40;;
57615;SDS011;43816;52.054;-9.494;2022-08-19T00:56:13;3.05;;;1.40;;
57615;SDS011;43816;52.054;-9.494;2022-08-19T00:56:23;2.47;;;1.00;;
57615;SDS011;43816;52.054;-9.494;2022-08-19T00:56:34;2.50;;;1.08;;
57615;SDS011;43816;52.054;-9.494;2022-08-19T00:56:45;3.08;;;1.20;;
57615;SDS011;43816;52.054;-9.494;2022-08-19T00:56:55;3.17;;;1.38;;
57615;SDS011;43816;52.054;-9.494;2022-08-19T00:57:07;3.20;;;1.23;;
57615;SDS011;43816;52.054;-9.494;2022-08-19T00:57:22;2.83;;;1.10;;
57615;SDS011;43816;52.054;-9.494;2022-08-19T00:57:38;2.90;;;1.02;;
57615;SDS011;43816;52.054;-9.494;2022-08-19T00:57:53;3.42;;;1.20;;
57615;SDS011;43816;52.054;-9.494;2022-08-19T00:58:07;3.25;;;1.23;;
57615;SDS011;43816;52.054;-9.494;2022-08-19T00:58:22;2.55;;;1.23;;
57615;SDS011;43816;52.054;-9.494;2022-08-19T00:58:36;2.65;;;1.35;;
57615;SDS011;43816;52.054;-9.494;2022-08-19T00:58:46;2.55;;;1.17;;
57615;SDS011;43816;52.054;-9.494;2022-08-19T00:58:57;2.83;;;1.30;;
57615;SDS011;43816;52.054;-9.494;2022-08-19T00:59:09;2.38;;;1.20;;
57615;SDS011;43816;52.054;-9.494;2022-08-19T00:59:20;2.15;;;1.10;;
57615;SDS011;43816;52.054;-9.494;2022-08-19T00:59:30;2.17;;;1.00;;
57615;SDS011;43816;52.054;-9.494;2022-08-19T00:59:42;2.40;;;1.03;;
57615;SDS011;43816;52.054;-9.494;2022-08-19T00:59:56;2.47;;;1.05;;
57615;SDS011;43816;52.054;-9.494;2022-08-19T01:00:09;2.72;;;1.10;;
57615;SDS011;43816;52.054;-9.494;2022-08-19T01:00:24;2.65;;;1.15;;
57615;SDS011;43816;52.054;-9.494;2022-08-19T01:00:36;2.55;;;1.10;;
57615;SDS011;43816;52.054;-9.494;2022-08-19T01:00:47;2.78;;;1.10;;
57615;SDS011;43816;52.054;-9.494;2022-08-19T01:00:58;2.63;;;1.00;;
57615;SDS011;43816;52.054;-9.494;2022-08-19T01:01:09;2.72;;;1.10;;
57615;SDS011;43816;52.054;-9.494;2022-08-19T01:01:19;2.95;;;1.20;;
57615;SDS011;43816;52.054;-9.494;2022-08-19T01:01:29;3.00;;;1.20;;
57615;SDS011;43816;52.054;-9.494;2022-08-19T01:01:40;2.43;;;1.10;;
57615;SDS011;43816;52.054;-9.494;2022-08-19T01:01:52;2.13;;;1.00;;
57615;SDS011;43816;52.054;-9.494;2022-08-19T01:02:03;2.37;;;1.10;;
57615;SDS011;43816;52.054;-9.494;2022-08-19T01:02:14;2.63;;;1.00;;
57615;SDS011;43816;52.054;-9.494;2022-08-19T01:02:25;2.58;;;1.00;;
57615;SDS011;43816;52.054;-9.494;2022-08-19T01:02:36;2.35;;;1.00;;
57615;SDS011;43816;52.054;-9.494;2022-08-19T01:02:47;2.42;;;1.20;;
57615;SDS011;43816;52.054;-9.494;2022-08-19T01:02:58;2.05;;;1.10;;
57615;SDS011;43816;52.054;-9.494;2022-08-19T01:03:10;2.00;;;1.07;;
57615;SDS011;43816;52.054;-9.494;2022-08-19T01:03:22;2.40;;;1.20;;
57615;SDS011;43816;52.054;-9.494;2022-08-19T01:03:32;2.63;;;1.17;;
57615;SDS011;43816;52.054;-9.494;2022-08-19T01:03:43;2.67;;;1.20;;
57615;SDS011;43816;52.054;-9.494;2022-08-19T01:03:53;2.20;;;1.10;;
57615;SDS011;43816;52.054;-9.494;2022-08-19T01:04:04;2.20;;;1.07;;
57615;SDS011;43816;52.054;-9.494;2022-08-19T01:04:14;2.13;;;0.95;;
57615;SDS011;43816;52.054;-9.494;2022-08-19T01:04:24;2.20;;;1.00;;
57615;SDS011;43816;52.054;-9.494;2022-08-19T01:04:35;1.47;;;1.00;;
57615;SDS011;43816;52.054;-9.494;2022-08-19T01:04:45;1.90;;;1.08;;
57615;SDS011;43816;52.054;-9.494;2022-08-19T01:04:55;2.33;;;1.10;;
57615;SDS011;43816;52.054;-9.494;2022-08-19T01:05:07;2.97;;;1.20;;
57615;SDS011;43816;52.054;-9.494;2022-08-19T01:05:22;2.67;;;1.00;;
57615;SDS011;43816;52.054;-9.494;2022-08-19T01:05:35;2.30;;;0.90;;
57615;SDS011;43816;52.054;-9.494;2022-08-19T01:05:47;1.80;;;0.80;;
57615;SDS011;43816;52.054;-9.494;2022-08-19T01:06:00;1.75;;;1.08;;
57615;SDS011;43816;52.054;-9.494;2022-08-19T01:06:10;2.53;;;1.20;;
57615;SDS011;43816;52.054;-9.494;2022-08-19T01:06:21;2.58;;;1.10;;
57615;SDS011;43816;52.054;-9.494;2022-08-19T01:06:31;2.47;;;0.87;;
57615;SDS011;43816;52.054;-9.494;2022-08-19T01:06:42;2.17;;;0.85;;
57615;SDS011;43816;52.054;-9.494;2022-08-19T01:06:53;2.37;;;1.00;;
57615;SDS011;43816;52.054;-9.494;2022-08-19T01:07:03;2.37;;;1.10;;